Terminal Aerodrome Forecast
Issued by NWS Wichita, KS

Home | Current Version | Previous Version | Graphics & Text | Print | Product List | Glossary On
Versions: 1 2 3 4 5 6 7 8 9 10 11 12 13 14 15 16 17 18 19 20 21 22 23 24
000
FTUS43 KICT 011018 AAC
TAFICT
TAF AMD
KICT 011018Z 0110/0206 24010KT P6SM -RASN BKN008 OVC015
     FM011100 33018G25KT P6SM SCT007 BKN015
     FM011500 33025G33KT P6SM BKN015
     FM011900 33022G30KT P6SM BKN035
     FM020000 33015G22KT P6SM SCT035=

USA.gov is the U.S. government's official web portal to all federal, state and local government web resources and services.